To NAV CANADA Home Page Login to a new session Search on AWWS site Feedback and Comments Disclaimer Vers la page française équivalente Tips FAQ What's new on the site To the Forecasts and Observations / NOTAM section To "File a Flight Plan" website Publications and other links Update of the User's profile FIC Telephone Numbers My Weather Data Folder Route Weather Data Regional Weather Data Local Weather Data To the Forecasts and Observations / NOTAM section
Request Generated 12/04/2016 at 22:22:40 UTC . Weather information available at that time is displayed.

METAR/TAF

MAYO/YT    

METAR CYMA 042200Z 01006KT 20SM BKN070 M17/M24 A3038 RMK AC7 SLP347=
METAR CYMA 042100Z 02008KT 340V040 20SM BKN072 M17/M24 A3036 RMK AC7
SLP342=
METAR CYMA 042000Z 02010G16KT 20SM DRSN OVC071 M17/M25 A3035 RMK AC8
SLP337=

TAF CYMA 041738Z 0418/0506 02010KT P6SM OVC070 TEMPO 0418/0503 5SM
-SN OVC050
FM050300 01005KT P6SM BKN070 TEMPO 0503/0506 SCT070
RMK NXT FCST BY 050000Z=
Your time UTC time
Weather data provided by Environment Canada and NAV CANADA